createdAt,value
2022-10-22T07:47:54.551Z,96726.91
2022-10-22T07:53:11.267Z,96734.34
2022-10-22T07:55:38.865Z,96732.16
2022-10-22T07:58:06.436Z,96727.50
2022-10-22T08:00:34.108Z,96742.66
2022-10-22T08:03:03.016Z,96734.16
2022-10-22T08:05:30.704Z,96742.84
2022-10-22T08:07:58.362Z,96736.59
2022-10-22T08:10:26.194Z,96746.69
2022-10-22T08:12:54.028Z,96744.66
2022-10-22T08:15:23.395Z,96741.03
2022-10-22T08:17:50.982Z,96749.03
2022-10-22T08:20:20.661Z,96741.91
2022-10-22T08:22:48.424Z,96751.69
2022-10-22T08:25:18.095Z,96749.22
2022-10-22T08:27:46.598Z,96745.88
2022-10-22T08:30:16.105Z,96757.03
2022-10-22T08:32:44.160Z,96750.84
2022-10-22T08:35:14.157Z,96754.84
2022-10-22T08:37:45.756Z,96746.97
2022-10-22T08:40:22.639Z,96752.88
2022-10-22T08:43:07.440Z,96747.66
2022-10-22T08:45:41.566Z,96745.75
2022-10-22T08:48:23.967Z,96745.75
2022-10-22T08:50:55.419Z,96751.53
2022-10-22T08:53:31.451Z,96743.91
2022-10-22T08:55:59.741Z,96750.28
2022-10-22T08:58:33.270Z,96761.56
2022-10-22T09:01:03.707Z,96768.09
2022-10-22T09:03:39.725Z,96776.78
2022-10-22T09:06:12.879Z,96770.94
2022-10-22T09:08:44.573Z,96769.63
2022-10-22T09:11:23.691Z,96780.03
2022-10-22T09:13:53.935Z,96779.19
2022-10-22T09:16:26.253Z,96765.81
2022-10-22T09:19:04.266Z,96776.25
2022-10-22T09:21:44.433Z,96770.97
2022-10-22T09:24:17.811Z,96785.09
2022-10-22T09:26:45.289Z,96774.66
2022-10-22T09:29:19.308Z,96781.69
2022-10-22T09:31:47.095Z,96777.06
2022-10-22T09:34:16.392Z,96773.00
2022-10-22T09:36:43.913Z,96773.16
2022-10-22T09:39:26.712Z,96778.50
2022-10-22T09:41:54.620Z,96771.34
2022-10-22T09:44:22.481Z,96783.56
2022-10-22T09:46:50.362Z,96773.56
2022-10-22T09:49:20.467Z,96782.88
2022-10-22T09:51:54.304Z,96788.66
2022-10-22T09:54:25.265Z,96790.91
2022-10-22T09:56:56.104Z,96788.66
2022-10-22T09:59:32.116Z,96800.19
2022-10-22T10:02:13.778Z,96795.31
2022-10-22T10:04:50.341Z,96787.53
2022-10-22T10:07:20.020Z,96791.31
2022-10-22T10:09:49.424Z,96806.53
2022-10-22T10:12:35.172Z,96795.88
2022-10-22T10:15:16.703Z,96801.66
2022-10-22T10:17:54.952Z,96808.09
2022-10-22T10:20:35.138Z,96802.16
2022-10-22T10:23:09.274Z,96803.53
2022-10-22T10:25:54.066Z,96803.50
2022-10-22T10:28:31.648Z,96810.19
2022-10-22T10:31:11.873Z,96807.78
2022-10-22T10:33:48.284Z,96818.97
2022-10-22T10:36:23.801Z,96812.47
2022-10-22T10:38:59.106Z,96816.75
2022-10-22T10:41:39.494Z,96804.28
2022-10-22T10:44:21.891Z,96808.53
2022-10-22T10:46:58.313Z,96805.50
2022-10-22T10:49:27.917Z,96805.41
2022-10-22T10:52:02.488Z,96802.47
2022-10-22T10:54:43.207Z,96808.25
2022-10-22T10:57:26.498Z,96796.81
2022-10-22T11:00:03.208Z,96794.66
2022-10-22T11:02:52.159Z,96796.19
2022-10-22T11:05:31.689Z,96798.69
2022-10-22T11:08:02.920Z,96789.97
2022-10-22T11:10:35.251Z,96784.44
2022-10-22T11:13:12.577Z,96795.63
2022-10-22T11:15:41.383Z,96789.44
2022-10-22T11:18:18.893Z,96787.47
2022-10-22T11:20:54.736Z,96792.28
2022-10-22T11:23:29.100Z,96793.97
2022-10-22T11:25:56.629Z,96790.41
2022-10-22T11:28:28.535Z,96798.94
2022-10-22T11:31:02.240Z,96801.16
2022-10-22T11:33:35.967Z,96791.88
2022-10-22T11:36:06.081Z,96792.00
2022-10-22T11:38:35.910Z,96789.53
2022-10-22T11:41:06.912Z,96791.56
2022-10-22T11:43:53.852Z,96798.53
2022-10-22T11:46:41.456Z,96794.69
2022-10-22T11:49:20.333Z,96795.53
2022-10-22T11:51:48.402Z,96799.19
2022-10-22T11:54:31.787Z,96794.22
2022-10-22T11:57:18.279Z,96798.34
2022-10-22T11:59:50.587Z,96795.31
2022-10-22T12:02:32.595Z,96799.63
2022-10-22T12:05:20.836Z,96790.06
2022-10-22T12:07:54.971Z,96786.13
2022-10-22T12:10:25.491Z,96790.22
2022-10-22T12:12:58.253Z,96789.22
2022-10-22T12:15:28.865Z,96791.13
2022-10-22T12:18:01.684Z,96778.22
2022-10-22T12:20:30.571Z,96774.00
2022-10-22T12:22:59.687Z,96771.88
2022-10-22T12:25:35.745Z,96772.09
2022-10-22T12:28:03.707Z,96776.19
2022-10-22T12:30:35.411Z,96772.69
2022-10-22T12:33:05.295Z,96771.78
2022-10-22T12:35:35.541Z,96775.66
2022-10-22T12:38:11.548Z,96761.28
2022-10-22T12:40:45.895Z,96772.28
2022-10-22T12:43:18.395Z,96767.00
2022-10-22T12:45:49.592Z,96766.81
2022-10-22T12:48:19.851Z,96759.66
2022-10-22T12:50:50.435Z,96761.03
2022-10-22T12:53:20.771Z,96766.38
2022-10-22T12:55:50.941Z,96764.28
2022-10-22T12:58:21.621Z,96763.22
2022-10-22T13:00:57.288Z,96763.75
2022-10-22T13:03:31.827Z,96769.66
2022-10-22T13:06:13.419Z,96764.84
2022-10-22T13:08:41.507Z,96763.19
2022-10-22T13:11:11.406Z,96764.78
2022-10-22T13:13:45.652Z,96762.66
2022-10-22T13:16:21.364Z,96762.13
2022-10-22T13:18:49.551Z,96763.16
2022-10-22T13:21:27.332Z,96759.97
2022-10-22T13:23:57.167Z,96754.63
2022-10-22T13:26:30.436Z,96753.81
2022-10-22T13:29:01.078Z,96754.34
2022-10-22T13:31:33.373Z,96765.78
2022-10-22T13:34:09.734Z,96753.25
2022-10-22T13:36:39.446Z,96756.66
2022-10-22T13:39:07.936Z,96754.78
2022-10-22T13:44:13.019Z,96758.97
2022-10-22T13:46:43.392Z,96763.50
2022-10-22T13:49:15.932Z,96762.94
2022-10-22T13:51:44.116Z,96759.44
2022-10-22T13:54:16.777Z,96767.91
2022-10-22T13:56:46.839Z,96759.38
2022-10-22T13:59:16.252Z,96756.13
2022-10-22T14:01:47.447Z,96757.97
2022-10-22T14:04:15.540Z,96758.22
2022-10-22T14:06:43.461Z,96755.25
2022-10-22T14:09:16.199Z,96759.47
2022-10-22T14:11:44.030Z,96762.84
2022-10-22T14:14:31.340Z,96762.59
2022-10-22T15:38:56.597Z,96771.09
2022-10-22T15:42:00.914Z,96768.75
2022-10-22T15:44:49.241Z,96774.19
2022-10-22T15:50:17.403Z,96775.16
2022-10-22T15:52:49.536Z,96784.34
2022-10-22T15:55:19.375Z,96780.78
2022-10-22T15:58:00.580Z,96782.78
2022-10-22T16:00:33.297Z,96783.16
2022-10-22T16:03:04.681Z,96787.81
2022-10-22T16:05:55.116Z,96796.97
2022-10-22T16:08:26.563Z,96795.50
2022-10-22T16:11:09.928Z,96806.03
2022-10-22T16:13:48.112Z,96799.03
2022-10-22T16:16:17.947Z,96793.31
2022-10-22T16:18:46.894Z,96798.66
2022-10-22T16:21:24.110Z,96792.03
2022-10-22T16:24:06.012Z,96791.00
2022-10-22T16:26:51.966Z,96792.72
2022-10-22T16:29:27.310Z,96790.25
2022-10-22T16:35:12.649Z,96796.34
2022-10-22T16:38:21.358Z,96805.34
2022-10-22T16:40:59.481Z,96807.19
2022-10-22T16:43:41.772Z,96812.22
2022-10-22T16:46:32.154Z,96804.28
2022-10-22T16:49:06.271Z,96803.00
2022-10-22T16:51:58.999Z,96813.09
2022-10-22T16:54:41.622Z,96806.50
2022-10-22T16:57:19.424Z,96814.41
2022-10-22T17:00:07.046Z,96812.78
2022-10-22T17:02:43.404Z,96819.41
2022-10-22T17:05:21.596Z,96816.84
2022-10-22T17:07:59.724Z,96825.44
2022-10-22T17:10:43.268Z,96830.44
2022-10-22T17:13:18.361Z,96836.84
2022-10-22T17:16:00.883Z,96831.03
2022-10-22T17:18:36.292Z,96822.88
2022-10-22T17:21:10.067Z,96831.09
2022-10-22T17:23:44.425Z,96838.84
2022-10-22T17:26:38.255Z,96845.38
2022-10-22T17:29:12.655Z,96848.91
2022-10-22T17:38:00.365Z,96856.81
2022-10-22T17:40:37.280Z,96861.50
2022-10-22T17:43:11.027Z,96847.13
2022-10-22T17:45:54.496Z,96849.63
2022-10-22T18:41:02.103Z,96881.56
2022-10-22T18:46:45.541Z,96875.75
2022-10-22T18:49:41.488Z,96871.53
2022-10-22T19:05:10.933Z,96870.06
2022-10-22T19:14:21.426Z,96863.25
2022-10-22T19:21:15.120Z,96860.47
2022-10-22T20:22:07.132Z,96861.88
2022-10-22T20:24:44.938Z,96859.47
2022-10-22T22:29:29.746Z,96848.66
2022-10-22T22:31:57.380Z,96844.41
2022-10-22T22:34:24.869Z,96847.25
2022-10-22T22:36:52.549Z,96837.94
2022-10-22T22:39:22.699Z,96834.13
2022-10-22T22:41:51.026Z,96829.88
2022-10-22T22:44:19.331Z,96823.81
2022-10-22T22:46:48.849Z,96831.91
2022-10-22T22:49:17.622Z,96838.75
2022-10-22T22:51:45.933Z,96834.31
2022-10-22T22:54:14.019Z,96835.13
2022-10-22T22:56:42.211Z,96840.41
2022-10-22T22:59:11.638Z,96840.41
2022-10-22T23:01:40.725Z,96845.03
2022-10-22T23:04:19.154Z,96846.44
2022-10-22T23:06:48.047Z,96846.22
2022-10-22T23:11:48.850Z,96849.69
2022-10-22T23:14:20.129Z,96855.75
2022-10-22T23:16:52.260Z,96852.09
2022-10-22T23:19:24.432Z,96846.63
2022-10-22T23:21:56.555Z,96850.91
2022-10-22T23:24:27.310Z,96848.03
2022-10-22T23:26:57.464Z,96838.56
2022-10-22T23:29:28.619Z,96832.50
2022-10-22T23:32:01.383Z,96837.16
2022-10-22T23:34:32.698Z,96829.88
2022-10-22T23:37:01.980Z,96832.91
2022-10-22T23:39:32.297Z,96828.69
2022-10-22T23:42:01.351Z,96827.66
2022-10-22T23:44:30.326Z,96825.81
2022-10-22T23:46:59.412Z,96820.56
2022-10-22T23:49:28.363Z,96818.53
2022-10-22T23:51:58.738Z,96821.41
2022-10-22T23:54:27.834Z,96816.53
2022-10-22T23:56:56.689Z,96814.72
2022-10-22T23:59:25.889Z,96823.63
